Time;durP1;ratioP1;P1;durP2;ratioP2;P2;SDS_P1;SDS_P2;PMS_P1;PMS_P2;Temp;Humidity;BMP_temperature;BMP_pressure;BME280_temperature;BME280_humidity;BME280_pressure;Samples;Min_cycle;Max_cycle;Signal;HPM_P1;HPM_P2
2022/10/05 05:18:01;;;;;;;;;;;;;;;16.01;73.06;97577.44;4236335;27;10379;-70
2022/10/05 05:20:19;;;;;;;;;;;;;;;16.36;72.07;97576.34;4226454;27;5790;-71
2022/10/05 05:22:29;;;;;;;;;;;;;;;16.57;71.49;97574.19;4216890;27;5626;-71
2022/10/05 05:24:48;;;;;;;;;;;;;;;16.74;71.23;97574.56;4218076;27;5701;-72
2022/10/05 05:27:09;;;;;;;;;;;;;;;16.84;70.93;97574.91;4217693;27;5677;-71
2022/10/05 05:29:21;;;;;;;;;;;;;;;16.93;70.48;97578.16;4224476;27;5672;-70
2022/10/05 05:31:30;;;;;;;;;;;;;;;17.00;70.34;97575.47;4217786;27;5700;-72
2022/10/05 05:33:47;;;;;;;;;;;;;;;17.06;70.19;97579.94;4222880;28;5667;-72
2022/10/05 05:36:09;;;;;;;;;;;;;;;17.12;69.83;97581.75;4233686;27;6496;-73
2022/10/05 05:38:24;;;;;;;;;;;;;;;17.16;69.47;97588.28;4243051;27;5675;-72
2022/10/05 05:40:32;;;;;;;;;;;;;;;17.20;69.32;97586.81;4231033;28;5664;-72
2022/10/05 05:42:45;;;;;;;;;;;;;;;17.23;69.12;97596.28;4238304;27;5674;-71
2022/10/05 05:44:50;;;;;;;;;;;;;;;17.24;68.91;97585.38;4215019;28;5800;-71
2022/10/05 05:47:00;;;;;;;;;;;;;;;17.25;68.81;97597.69;4232741;27;5675;-71
2022/10/05 05:49:15;;;;;;;;;;;;;;;17.28;68.54;97602.59;4231400;27;5664;-72
2022/10/05 05:51:25;;;;;;;;;;;;;;;17.28;68.45;97597.25;4232903;27;5683;-71
2022/10/05 05:53:32;;;;;;;;;;;;;;;17.28;68.38;97604.44;4246236;27;5238;-72
2022/10/05 05:55:42;;;;;;;;;;;;;;;17.29;68.73;97608.75;4231334;27;5751;-71
2022/10/05 05:57:51;;;;;;;;;;;;;;;17.30;68.25;97605.88;4239013;27;5646;-71
2022/10/05 06:00:02;;;;;;;;;;;;;;;17.31;68.04;97601.34;4232061;27;5085;-72
2022/10/05 06:02:10;;;;;;;;;;;;;;;17.31;67.99;97606.69;4235280;27;5779;-71
2022/10/05 06:04:19;;;;;;;;;;;;;;;17.31;67.77;97602.16;4224021;28;6496;-71
2022/10/05 06:06:25;;;;;;;;;;;;;;;17.34;67.58;97603.59;4226164;28;5869;-71
2022/10/05 06:08:35;;;;;;;;;;;;;;;17.36;67.48;97599.69;4238740;27;5687;-71
2022/10/05 06:10:42;;;;;;;;;;;;;;;17.37;67.35;97600.50;4239644;27;5709;-71
2022/10/05 06:12:49;;;;;;;;;;;;;;;17.39;66.98;97599.22;4231466;28;5749;-71
2022/10/05 06:14:58;;;;;;;;;;;;;;;17.40;67.01;97597.38;4241001;27;5655;-71
2022/10/05 06:17:06;;;;;;;;;;;;;;;17.41;66.88;97597.16;4237711;27;5774;-71
2022/10/05 06:19:12;;;;;;;;;;;;;;;17.44;66.74;97601.25;4223644;28;5787;-71
2022/10/05 06:21:21;;;;;;;;;;;;;;;17.46;66.73;97599.19;4219649;28;5684;-71
2022/10/05 06:23:33;;;;;;;;;;;;;;;17.46;66.73;97600.00;4223362;28;5698;-71
2022/10/05 06:25:46;;;;;;;;;;;;;;;17.49;66.59;97597.94;4219669;28;7746;-71
2022/10/05 06:28:02;;;;;;;;;;;;;;;17.50;66.39;97607.59;4221054;28;5659;-71
2022/10/05 06:30:09;;;;;;;;;;;;;;;17.50;66.12;97604.91;4219147;28;5680;-71
2022/10/05 06:32:24;;;;;;;;;;;;;;;17.51;66.14;97609.22;4223870;28;5673;-71
2022/10/05 06:34:47;;;;;;;;;;;;;;;17.55;65.97;97602.41;4227971;28;5670;-71
2022/10/05 06:36:58;;;;;;;;;;;;;;;17.58;65.79;97607.34;4211822;28;5768;-72
2022/10/05 06:39:40;;;;;;;;;;;;;;;17.59;65.66;97612.47;4227567;28;5695;-71
2022/10/05 06:41:59;;;;;;;;;;;;;;;17.61;65.50;97604.22;4211148;28;5775;-71
2022/10/05 06:44:09;;;;;;;;;;;;;;;17.63;65.63;97599.47;4218843;28;5747;-71
2022/10/05 06:46:21;;;;;;;;;;;;;;;17.63;65.43;97594.94;4227628;28;5695;-72
2022/10/05 06:48:32;;;;;;;;;;;;;;;17.65;65.25;97594.72;4213046;28;5743;-72
2022/10/05 06:50:38;;;;;;;;;;;;;;;17.68;65.18;97607.66;4218404;28;5842;-72
2022/10/05 06:52:53;;;;;;;;;;;;;;;17.69;65.13;97606.66;4225658;28;5708;-72
2022/10/05 06:55:13;;;;;;;;;;;;;;;17.71;65.07;97602.72;4218884;28;5692;-72
2022/10/05 06:57:35;;;;;;;;;;;;;;;17.73;64.94;97615.88;4218403;28;5687;-72
2022/10/05 06:59:48;;;;;;;;;;;;;;;17.75;65.02;97611.13;4226828;28;5642;-72
2022/10/05 07:02:01;;;;;;;;;;;;;;;17.78;65.04;97609.84;4211621;28;5777;-72
2022/10/05 07:04:20;;;;;;;;;;;;;;;17.79;64.98;97609.66;4227169;28;5219;-72
2022/10/05 07:06:26;;;;;;;;;;;;;;;17.81;64.71;97612.94;4218491;28;5727;-71
2022/10/05 07:08:45;;;;;;;;;;;;;;;17.83;64.86;97612.72;4217123;28;5076;-71
2022/10/05 07:11:02;;;;;;;;;;;;;;;17.85;64.90;97607.94;4210235;28;5882;-72
2022/10/05 07:13:17;;;;;;;;;;;;;;;17.88;64.82;97610.19;4211722;28;5843;-71
2022/10/05 07:15:35;;;;;;;;;;;;;;;17.89;64.78;97609.97;4211404;28;5638;-72
2022/10/05 07:17:51;;;;;;;;;;;;;;;17.92;64.75;97614.06;4207900;28;5101;-72
2022/10/05 07:20:02;;;;;;;;;;;;;;;17.95;64.82;97614.44;4224160;28;5705;-71
2022/10/05 07:22:26;;;;;;;;;;;;;;;17.98;64.83;97618.53;4217550;28;5708;-72
2022/10/05 07:24:42;;;;;;;;;;;;;;;18.01;64.73;97618.94;4217752;28;5706;-71
2022/10/05 07:26:49;;;;;;;;;;;;;;;18.03;64.71;97619.53;4208331;28;5191;-72
2022/10/05 07:29:12;;;;;;;;;;;;;;;18.04;64.97;97617.66;4208304;28;5675;-72
2022/10/05 07:31:28;;;;;;;;;;;;;;;18.05;64.69;97608.59;4218737;28;5662;-72
2022/10/05 07:33:38;;;;;;;;;;;;;;;18.07;64.82;97611.88;4213849;28;5894;-72
2022/10/05 07:38:19;;;;;;;;;;;;;;;18.12;64.83;97617.38;4204105;28;5094;-71
2022/10/05 07:40:28;;;;;;;;;;;;;;;18.13;64.72;97620.88;4209632;28;5696;-70
2022/10/05 07:42:48;;;;;;;;;;;;;;;18.16;64.87;97623.09;4213685;28;5684;-72
2022/10/05 07:45:00;;;;;;;;;;;;;;;18.19;64.94;97617.31;4204551;28;5700;-72
2022/10/05 07:47:10;;;;;;;;;;;;;;;18.22;64.78;97624.88;4211492;28;5761;-72
2022/10/05 07:49:21;;;;;;;;;;;;;;;18.22;64.79;97627.56;4234306;28;5647;-72
2022/10/05 07:51:31;;;;;;;;;;;;;;;18.22;65.11;97630.22;4234593;28;5792;-72
2022/10/05 07:53:37;;;;;;;;;;;;;;;18.23;65.07;97622.00;4226893;28;5680;-72
2022/10/05 07:55:48;;;;;;;;;;;;;;;18.26;64.99;97628.78;4218007;28;5664;-72
2022/10/05 07:57:56;;;;;;;;;;;;;;;18.28;64.90;97632.03;4225690;28;5658;-72
2022/10/05 08:00:03;;;;;;;;;;;;;;;18.28;64.97;97619.47;4217431;28;5684;-71
2022/10/05 08:02:18;;;;;;;;;;;;;;;18.29;64.73;97621.09;4221045;28;5706;-71
2022/10/05 08:04:27;;;;;;;;;;;;;;;18.31;64.89;97623.56;4220073;28;5660;-71
2022/10/05 08:06:47;;;;;;;;;;;;;;;18.31;64.89;97620.88;4232481;28;5753;-72
2022/10/05 08:08:57;;;;;;;;;;;;;;;18.34;64.90;97617.75;4224140;28;5668;-73
2022/10/05 08:11:07;;;;;;;;;;;;;;;18.36;64.74;97621.06;4217689;28;5825;-73
2022/10/05 08:13:18;;;;;;;;;;;;;;;18.40;64.71;97616.06;4229733;28;5650;-73
2022/10/05 08:15:25;;;;;;;;;;;;;;;18.40;64.58;97619.56;4234314;28;5646;-73
2022/10/05 08:17:39;;;;;;;;;;;;;;;18.44;64.84;97623.41;4234154;28;5661;-73
2022/10/05 08:19:47;;;;;;;;;;;;;;;18.45;64.71;97613.50;4217956;28;5638;-73
2022/10/05 08:21:59;;;;;;;;;;;;;;;18.47;64.72;97625.66;4234121;28;5650;-73
2022/10/05 08:24:10;;;;;;;;;;;;;;;18.48;64.79;97621.94;4222394;28;6772;-72
2022/10/05 08:26:24;;;;;;;;;;;;;;;18.53;64.63;97627.44;4217043;28;5889;-72
2022/10/05 08:28:34;;;;;;;;;;;;;;;18.55;64.36;97630.69;4231996;28;5634;-72
2022/10/05 08:30:52;;;;;;;;;;;;;;;18.54;64.44;97626.38;4234158;28;6501;-72
2022/10/05 08:33:05;;;;;;;;;;;;;;;18.54;64.43;97626.38;4231648;28;5661;-72
2022/10/05 08:35:25;;;;;;;;;;;;;;;18.58;64.44;97621.44;4221012;28;7054;-72
2022/10/05 08:37:33;;;;;;;;;;;;;;;18.60;64.50;97628.19;4234005;28;5658;-72
2022/10/05 08:39:41;;;;;;;;;;;;;;;18.61;64.38;97619.09;4225881;28;5672;-72
2022/10/05 08:42:21;;;;;;;;;;;;;;;18.63;64.58;97622.38;4216803;28;5660;-72
2022/10/05 08:45:09;;;;;;;;;;;;;;;18.65;64.24;97630.22;4223279;28;5642;-72
2022/10/05 08:47:26;;;;;;;;;;;;;;;18.63;64.43;97627.72;4203004;28;5666;-72
2022/10/05 08:50:02;;;;;;;;;;;;;;;18.66;64.50;97625.66;4234038;28;5787;-73
2022/10/05 08:52:28;;;;;;;;;;;;;;;18.68;64.32;97629.75;4219201;28;5676;-73
2022/10/05 08:55:00;;;;;;;;;;;;;;;18.71;64.37;97628.50;4232056;28;5689;-73
2022/10/05 08:57:28;;;;;;;;;;;;;;;18.72;64.02;97632.81;4234128;28;5740;-73
2022/10/05 08:59:57;;;;;;;;;;;;;;;18.72;64.29;97635.50;4233603;28;5665;-73
2022/10/05 09:02:19;;;;;;;;;;;;;;;18.70;64.28;97632.25;4200155;28;5767;-73
2022/10/05 09:04:42;;;;;;;;;;;;;;;18.71;64.00;97644.59;4208905;28;5662;-74
2022/10/05 09:07:05;;;;;;;;;;;;;;;18.71;64.03;97649.94;4215866;28;5671;-73
2022/10/05 09:09:48;;;;;;;;;;;;;;;18.70;64.19;97649.13;4220751;28;6463;-72
2022/10/05 09:12:06;;;;;;;;;;;;;;;18.72;64.11;97648.91;4186343;28;5680;-72
2022/10/05 09:14:37;;;;;;;;;;;;;;;18.72;64.01;97641.69;4216849;28;5708;-72
2022/10/05 09:17:07;;;;;;;;;;;;;;;18.74;64.06;97636.09;4217075;28;5762;-72
2022/10/05 09:19:41;;;;;;;;;;;;;;;18.78;63.83;97645.31;4214231;28;5807;-72
2022/10/05 09:21:57;;;;;;;;;;;;;;;18.78;63.85;97642.63;4215186;28;5684;-72
2022/10/05 09:24:15;;;;;;;;;;;;;;;18.77;63.82;97644.47;4227613;28;5749;-72
2022/10/05 09:26:42;;;;;;;;;;;;;;;18.82;63.80;97641.16;4225356;28;5659;-72
2022/10/05 09:29:10;;;;;;;;;;;;;;;18.82;63.63;97641.16;4199612;28;5720;-72
2022/10/05 09:31:35;;;;;;;;;;;;;;;18.85;63.93;97640.69;4216737;28;5121;-72
2022/10/05 09:34:12;;;;;;;;;;;;;;;18.86;63.52;97632.44;4215750;28;5676;-72
2022/10/05 09:36:42;;;;;;;;;;;;;;;18.86;63.76;97635.09;4203963;28;5663;-72
2022/10/05 09:39:13;;;;;;;;;;;;;;;18.91;63.53;97629.06;4205404;28;5688;-73
2022/10/05 09:41:35;;;;;;;;;;;;;;;18.95;63.28;97629.44;4199630;28;5681;-72
2022/10/05 09:44:07;;;;;;;;;;;;;;;19.00;63.29;97630.38;4223789;28;5683;-72
2022/10/05 09:46:44;;;;;;;;;;;;;;;19.04;63.11;97628.09;4206653;28;5675;-73
2022/10/05 09:49:20;;;;;;;;;;;;;;;19.06;63.14;97623.31;4218127;28;5654;-73
2022/10/05 09:51:53;;;;;;;;;;;;;;;19.11;62.76;97629.63;4196268;28;5676;-73
2022/10/05 09:54:51;;;;;;;;;;;;;;;19.14;62.82;97615.78;4214370;28;5858;-72
2022/10/05 09:57:23;;;;;;;;;;;;;;;19.13;63.04;97621.34;4211399;28;5679;-72
2022/10/05 09:59:51;;;;;;;;;;;;;;;19.14;62.99;97613.13;4201915;28;5748;-72
2022/10/05 10:02:15;;;;;;;;;;;;;;;19.19;63.02;97620.47;4219318;28;5684;-72
2022/10/05 10:04:29;;;;;;;;;;;;;;;19.25;62.68;97619.53;4216755;28;5691;-72
2022/10/05 10:06:54;;;;;;;;;;;;;;;19.29;62.70;97611.88;4212475;28;5788;-72
2022/10/05 10:09:16;;;;;;;;;;;;;;;19.29;62.73;97611.88;4202533;28;5784;-73
2022/10/05 10:11:43;;;;;;;;;;;;;;;19.31;62.32;97617.81;4213123;28;5757;-71
2022/10/05 10:14:17;;;;;;;;;;;;;;;19.33;62.16;97607.66;4202777;28;5803;-72
2022/10/05 10:16:44;;;;;;;;;;;;;;;19.36;62.09;97613.38;4208512;28;5667;-73
2022/10/05 10:19:16;;;;;;;;;;;;;;;19.41;62.19;97620.75;4199803;28;6362;-72
2022/10/05 10:21:44;;;;;;;;;;;;;;;19.45;62.20;97616.56;4216720;28;5663;-73
2022/10/05 10:24:02;;;;;;;;;;;;;;;19.46;61.99;97616.31;4214422;28;5156;-73
2022/10/05 10:26:43;;;;;;;;;;;;;;;19.48;62.14;97618.81;4206938;28;5671;-73
2022/10/05 10:29:01;;;;;;;;;;;;;;;19.50;61.84;97619.41;4215082;28;5655;-74
2022/10/05 10:31:39;;;;;;;;;;;;;;;19.52;61.55;97619.97;4209718;28;5693;-72
2022/10/05 10:34:02;;;;;;;;;;;;;;;19.52;61.80;97619.97;4208968;28;5683;-72
2022/10/05 10:36:12;;;;;;;;;;;;;;;19.56;61.49;97609.63;4207466;28;6127;-72
2022/10/05 10:38:40;;;;;;;;;;;;;;;19.54;61.52;97609.81;4201018;28;5721;-72
2022/10/05 10:41:10;;;;;;;;;;;;;;;19.57;61.18;97608.56;4202925;28;5675;-72
2022/10/05 10:43:35;;;;;;;;;;;;;;;19.60;61.20;97600.91;4182954;28;5734;-72
2022/10/05 10:45:52;;;;;;;;;;;;;;;19.62;61.04;97606.84;4200410;28;5688;-73
2022/10/05 10:48:09;;;;;;;;;;;;;;;19.65;61.18;97602.88;4209717;28;5931;-73
2022/10/05 10:50:47;;;;;;;;;;;;;;;19.68;61.07;97611.28;4200389;28;5669;-79
2022/10/05 10:53:08;;;;;;;;;;;;;;;19.68;60.97;97608.59;4212478;28;5692;-80
2022/10/05 10:55:30;;;;;;;;;;;;;;;19.70;60.76;97609.16;4219143;28;5658;-81
2022/10/05 10:57:50;;;;;;;;;;;;;;;19.72;60.77;97609.78;4219919;27;5838;-83
2022/10/05 11:00:27;;;;;;;;;;;;;;;19.75;60.53;97608.50;4220907;28;5672;-82
2022/10/05 11:02:56;;;;;;;;;;;;;;;19.76;60.38;97605.59;4235919;28;5876;-79
2022/10/05 11:05:21;;;;;;;;;;;;;;;19.78;60.21;97606.16;4213311;28;5684;-79
2022/10/05 11:07:55;;;;;;;;;;;;;;;19.81;60.17;97606.75;4228573;28;5708;-74
2022/10/05 11:10:30;;;;;;;;;;;;;;;19.83;59.83;97602.81;4215076;28;5801;-73
2022/10/05 11:13:16;;;;;;;;;;;;;;;19.84;59.96;97604.44;4215709;27;5672;-75
2022/10/05 11:15:52;;;;;;;;;;;;;;;19.86;59.64;97598.81;4218362;28;5822;-74
2022/10/05 11:18:10;;;;;;;;;;;;;;;19.88;59.86;97597.53;4222143;28;5642;-74
2022/10/05 11:20:38;;;;;;;;;;;;;;;19.89;59.60;97590.31;4226415;28;5638;-75
2022/10/05 11:23:26;;;;;;;;;;;;;;;19.91;59.49;97590.88;4216035;28;5762;-76
2022/10/05 11:25:50;;;;;;;;;;;;;;;19.90;59.13;97589.25;4220857;27;5767;-75
2022/10/05 11:28:22;;;;;;;;;;;;;;;19.91;59.12;97580.97;4218305;28;5774;-75
2022/10/05 11:30:45;;;;;;;;;;;;;;;19.94;58.98;97579.72;4231237;28;5642;-74
2022/10/05 11:33:23;;;;;;;;;;;;;;;19.94;58.52;97583.22;4226905;27;5797;-74
2022/10/05 11:35:51;;;;;;;;;;;;;;;19.97;58.52;97585.41;4220103;28;5715;-75
2022/10/05 11:38:08;;;;;;;;;;;;;;;19.99;58.34;97587.84;4204915;28;5774;-74
2022/10/05 11:40:33;;;;;;;;;;;;;;;20.01;58.47;97583.06;4199093;28;5771;-71
2022/10/05 11:43:09;;;;;;;;;;;;;;;20.04;57.80;97574.53;4203655;28;5740;-71
2022/10/05 11:45:22;;;;;;;;;;;;;;;20.06;57.82;97578.66;4207192;28;7182;-76
2022/10/05 11:47:28;;;;;;;;;;;;;;;20.09;57.67;97576.53;4212367;28;5680;-76
2022/10/05 11:49:53;;;;;;;;;;;;;;;20.10;57.64;97570.94;4206274;28;5749;-76
2022/10/05 11:52:08;;;;;;;;;;;;;;;20.13;57.99;97567.78;4208217;28;5671;-74
2022/10/05 11:54:36;;;;;;;;;;;;;;;20.15;57.81;97568.34;4209898;28;5720;-74
2022/10/05 11:57:03;;;;;;;;;;;;;;;20.18;57.33;97559.03;4207174;28;5763;-74
2022/10/05 11:59:17;;;;;;;;;;;;;;;20.18;57.21;97564.41;4205146;28;5677;-74
2022/10/05 12:01:29;;;;;;;;;;;;;;;20.19;57.22;97558.78;4212629;28;6079;-77
2022/10/05 12:03:46;;;;;;;;;;;;;;;20.20;57.37;97556.91;4216660;28;5684;-72
2022/10/05 12:06:20;;;;;;;;;;;;;;;20.24;56.87;97566.13;4206945;28;5799;-73
2022/10/05 12:08:30;;;;;;;;;;;;;;;20.23;57.14;97557.25;4174296;28;5844;-73
2022/10/05 12:10:43;;;;;;;;;;;;;;;20.21;57.03;97551.31;4166126;28;5764;-73
2022/10/05 12:12:59;;;;;;;;;;;;;;;20.21;56.71;97554.00;4177207;28;5665;-73
2022/10/05 12:15:17;;;;;;;;;;;;;;;20.22;56.75;97544.06;4172991;28;5856;-73
2022/10/05 12:17:25;;;;;;;;;;;;;;;20.23;57.01;97546.53;4159127;28;5865;-73
2022/10/05 12:19:35;;;;;;;;;;;;;;;20.24;56.66;97539.28;4169418;28;5856;-68
2022/10/05 12:21:44;;;;;;;;;;;;;;;20.26;56.59;97537.97;4183626;28;5678;-68
2022/10/05 12:23:53;;;;;;;;;;;;;;;20.28;56.52;97535.09;4175005;28;5678;-69
2022/10/05 12:26:02;;;;;;;;;;;;;;;20.31;56.27;97529.22;4184650;28;5760;-68
2022/10/05 12:28:10;;;;;;;;;;;;;;;20.32;56.39;97526.31;4186460;28;5682;-69
2022/10/05 12:30:26;;;;;;;;;;;;;;;20.32;56.31;97530.88;4184987;28;5663;-69
2022/10/05 12:32:34;;;;;;;;;;;;;;;20.35;56.42;97525.81;4180245;28;5756;-69
2022/10/05 12:34:47;;;;;;;;;;;;;;;20.36;56.25;97523.97;4174372;28;5725;-69
2022/10/05 12:36:57;;;;;;;;;;;;;;;20.35;56.45;97525.81;4172353;28;5685;-69
2022/10/05 12:39:16;;;;;;;;;;;;;;;20.36;56.14;97524.78;4168154;28;5682;-69
2022/10/05 12:41:24;;;;;;;;;;;;;;;20.38;56.22;97523.72;4170057;28;5665;-69
2022/10/05 12:43:37;;;;;;;;;;;;;;;20.35;56.05;97515.09;4217636;28;5646;-68
2022/10/05 12:45:54;;;;;;;;;;;;;;;20.37;55.72;97512.16;4224797;28;5714;-68
2022/10/05 12:48:14;;;;;;;;;;;;;;;20.42;56.14;97514.16;4206479;28;5684;-70
2022/10/05 12:50:22;;;;;;;;;;;;;;;20.43;55.97;97518.50;4228794;28;5634;-68
2022/10/05 12:52:45;;;;;;;;;;;;;;;20.45;55.72;97511.00;4218325;28;5661;-68
2022/10/05 12:54:57;;;;;;;;;;;;;;;20.44;55.49;97520.94;4213465;28;5820;-69
2022/10/05 12:57:09;;;;;;;;;;;;;;;20.44;55.62;97514.75;4213732;27;5971;-68
2022/10/05 12:59:21;;;;;;;;;;;;;;;20.47;55.67;97517.78;4220665;28;5705;-69
2022/10/05 13:01:35;;;;;;;;;;;;;;;20.48;55.64;97522.09;4227178;28;5741;-68
2022/10/05 13:03:44;;;;;;;;;;;;;;;20.49;55.87;97517.53;4224779;28;5656;-69
2022/10/05 13:05:55;;;;;;;;;;;;;;;20.51;55.77;97515.44;4216791;28;5687;-68
2022/10/05 13:08:13;;;;;;;;;;;;;;;20.54;55.82;97509.59;4224265;28;5679;-70
2022/10/05 13:10:30;;;;;;;;;;;;;;;20.58;55.72;97513.41;4213175;28;5896;-69
2022/10/05 13:12:46;;;;;;;;;;;;;;;20.59;55.63;97506.97;4218525;28;5668;-71
2022/10/05 13:15:01;;;;;;;;;;;;;;;20.63;55.67;97510.84;4215579;28;5878;-84
2022/10/05 13:17:14;;;;;;;;;;;;;;;20.64;55.46;97515.16;4212416;28;5704;-77
2022/10/05 13:19:34;;;;;;;;;;;;;;;20.64;55.30;97515.16;4219796;28;5657;-80
2022/10/05 13:21:57;;;;;;;;;;;;;;;20.63;55.50;97508.16;4225020;28;5245;-71
2022/10/05 13:24:09;;;;;;;;;;;;;;;20.64;55.24;97504.41;4218556;28;5897;-86
2022/10/05 13:26:17;;;;;;;;;;;;;;;20.66;55.17;97512.22;4222956;28;5862;-78
2022/10/05 13:28:29;;;;;;;;;;;;;;;20.67;55.59;97503.91;4222432;28;5754;-78
2022/10/05 13:30:34;;;;;;;;;;;;;;;20.68;55.06;97504.72;4211155;28;5834;-79
2022/10/05 13:32:44;;;;;;;;;;;;;;;20.70;55.12;97502.63;4236052;28;5650;-74
2022/10/05 13:34:57;;;;;;;;;;;;;;;20.70;55.42;97508.00;4205677;28;5704;-75
2022/10/05 13:37:11;;;;;;;;;;;;;;;20.74;54.98;97506.47;4227852;28;6017;-73
2022/10/05 13:39:29;;;;;;;;;;;;;;;20.76;55.21;97499.81;4224651;28;5732;-78
2022/10/05 13:41:42;;;;;;;;;;;;;;;20.76;55.22;97497.09;4224282;28;5805;-74
2022/10/05 13:43:58;;;;;;;;;;;;;;;20.79;55.01;97499.31;4208102;28;5774;-75
2022/10/05 13:46:10;;;;;;;;;;;;;;;20.80;55.17;97497.44;4206046;28;5589;-74
2022/10/05 13:48:26;;;;;;;;;;;;;;;20.82;54.66;97492.63;4219918;28;5666;-75
2022/10/05 13:50:33;;;;;;;;;;;;;;;20.86;54.57;97491.94;4214874;28;5671;-72
2022/10/05 13:52:47;;;;;;;;;;;;;;;20.92;54.61;97490.94;4222447;28;5774;-81
2022/10/05 13:54:58;;;;;;;;;;;;;;;20.93;54.59;97500.63;4208865;28;5734;-79
2022/10/05 13:57:10;;;;;;;;;;;;;;;20.93;54.61;97494.44;4212361;28;5654;-86
2022/10/05 13:59:24;;;;;;;;;;;;;;;20.93;54.85;97497.13;4214619;28;5823;-88
2022/10/05 14:01:35;;;;;;;;;;;;;;;21.03;54.80;97497.31;4213707;28;5920;-74
2022/10/05 14:03:41;;;;;;;;;;;;;;;21.06;54.83;97498.69;4211354;28;5663;-76
2022/10/05 14:05:55;;;;;;;;;;;;;;;21.08;54.75;97483.97;4207965;28;5674;-76
2022/10/05 14:08:15;;;;;;;;;;;;;;;21.08;55.08;97493.91;4214644;28;5814;-71
2022/10/05 14:10:34;;;;;;;;;;;;;;;21.13;54.95;97496.69;4209585;28;5775;-75
2022/10/05 14:12:40;;;;;;;;;;;;;;;21.14;55.11;97495.63;4207003;28;5851;-74
2022/10/05 14:14:47;;;;;;;;;;;;;;;21.16;55.18;97494.31;4210010;28;5704;-75
2022/10/05 14:16:53;;;;;;;;;;;;;;;21.15;54.90;97489.19;4212105;28;5757;-76
2022/10/05 14:19:17;;;;;;;;;;;;;;;21.13;54.88;97485.91;4207342;28;5681;-75
2022/10/05 14:21:22;;;;;;;;;;;;;;;21.14;55.18;97487.53;4207785;28;5708;-76
2022/10/05 14:23:26;;;;;;;;;;;;;;;21.14;55.15;97499.13;4213166;28;5658;-67
2022/10/05 14:25:30;;;;;;;;;;;;;;;21.15;54.70;97486.50;4215363;28;5672;-71
2022/10/05 14:27:35;;;;;;;;;;;;;;;21.19;55.24;97490.34;4204590;28;5688;-72
2022/10/05 14:29:38;;;;;;;;;;;;;;;21.23;54.83;97494.16;4215303;28;5815;-68
2022/10/05 14:31:49;;;;;;;;;;;;;;;21.23;54.83;97481.53;4206329;28;5676;-68
2022/10/05 14:33:52;;;;;;;;;;;;;;;21.21;54.85;97482.84;4221790;28;5896;-68
2022/10/05 14:35:58;;;;;;;;;;;;;;;21.20;54.96;97479.34;4235013;28;5721;-68
2022/10/05 14:38:03;;;;;;;;;;;;;;;21.19;55.00;97479.59;4235383;28;5801;-68
2022/10/05 14:40:23;;;;;;;;;;;;;;;21.20;55.27;97481.22;4235374;28;5654;-67
2022/10/05 14:42:28;;;;;;;;;;;;;;;21.23;55.07;97481.53;4235420;28;5674;-67
2022/10/05 14:44:32;;;;;;;;;;;;;;;21.25;54.80;97483.16;4235637;28;5693;-69
2022/10/05 14:46:37;;;;;;;;;;;;;;;21.27;54.33;97479.19;4231794;28;5702;-68
2022/10/05 14:48:42;;;;;;;;;;;;;;;21.27;54.45;97476.50;4235625;28;5661;-69
2022/10/05 14:50:53;;;;;;;;;;;;;;;21.29;54.42;97479.75;4202388;28;5697;-69
2022/10/05 14:53:15;;;;;;;;;;;;;;;21.30;53.89;97475.22;4228851;28;5642;-68
2022/10/05 14:55:30;;;;;;;;;;;;;;;21.31;53.81;97477.66;4235468;28;5640;-69
2022/10/05 14:57:42;;;;;;;;;;;;;;;21.32;53.68;97478.47;4209878;28;6009;-69
2022/10/05 15:00:02;;;;;;;;;;;;;;;21.34;53.68;97487.91;4209418;28;5700;-69
2022/10/05 15:02:30;;;;;;;;;;;;;;;21.33;53.53;97474.72;4225833;28;8425;-69
2022/10/05 15:04:42;;;;;;;;;;;;;;;21.34;53.70;97474.47;4227890;28;5748;-69
2022/10/05 15:06:51;;;;;;;;;;;;;;;21.36;53.22;97477.72;4234800;28;5654;-68
2022/10/05 15:09:30;;;;;;;;;;;;;;;21.34;53.21;97477.16;4229920;28;5630;-69
2022/10/05 15:11:41;;;;;;;;;;;;;;;21.37;53.13;97478.53;4232953;28;5638;-69
2022/10/05 15:13:47;;;;;;;;;;;;;;;21.40;53.05;97478.03;4213688;28;5663;-69
2022/10/05 15:15:53;;;;;;;;;;;;;;;21.40;53.22;97478.03;4234821;27;5641;-69
2022/10/05 15:18:01;;;;;;;;;;;;;;;21.39;53.36;97479.09;4223806;28;5632;-69
2022/10/05 15:20:17;;;;;;;;;;;;;;;21.38;53.57;97475.59;4203661;28;5872;-68
2022/10/05 15:22:30;;;;;;;;;;;;;;;21.40;53.42;97478.84;4208862;28;5676;-67
2022/10/05 15:24:41;;;;;;;;;;;;;;;21.39;53.36;97477.22;4209420;28;5774;-67
2022/10/05 15:26:50;;;;;;;;;;;;;;;21.38;53.45;97489.03;4205758;28;5688;-67
2022/10/05 15:29:00;;;;;;;;;;;;;;;21.37;53.61;97471.28;4207131;28;6525;-67
2022/10/05 15:31:05;;;;;;;;;;;;;;;21.40;53.86;97476.16;4208292;28;5675;-69
2022/10/05 15:33:17;;;;;;;;;;;;;;;21.39;53.76;97482.59;4206774;28;5787;-69
2022/10/05 15:35:44;;;;;;;;;;;;;;;21.39;53.84;97485.28;4210742;28;5810;-68
2022/10/05 15:37:53;;;;;;;;;;;;;;;21.38;54.04;97488.22;4210530;28;5678;-68
2022/10/05 15:40:02;;;;;;;;;;;;;;;21.39;53.76;97496.06;4209867;28;5477;-69
2022/10/05 15:42:10;;;;;;;;;;;;;;;21.42;53.86;97490.19;4205777;28;7746;-71
2022/10/05 15:44:24;;;;;;;;;;;;;;;21.40;53.81;97486.09;4205681;28;5829;-70
2022/10/05 15:46:33;;;;;;;;;;;;;;;21.38;53.84;97499.81;4209635;28;5788;-78
2022/10/05 15:48:45;;;;;;;;;;;;;;;21.36;54.09;97490.34;4206538;28;5783;-76
2022/10/05 15:50:55;;;;;;;;;;;;;;;21.35;54.08;97500.31;4202470;28;5809;-72
2022/10/05 15:53:10;;;;;;;;;;;;;;;21.38;53.70;97480.16;4211201;28;5655;-73
2022/10/05 15:55:26;;;;;;;;;;;;;;;21.39;54.13;97490.66;4204698;28;5691;-72
2022/10/05 15:57:38;;;;;;;;;;;;;;;21.37;54.15;97481.22;4213955;28;5651;-70
2022/10/05 15:59:52;;;;;;;;;;;;;;;21.35;54.07;97481.47;4205001;28;5776;-71
2022/10/05 16:02:00;;;;;;;;;;;;;;;21.38;54.04;97486.34;4203467;28;5692;-73
2022/10/05 16:04:12;;;;;;;;;;;;;;;21.35;53.61;97492.22;4205872;28;5818;-79
2022/10/05 16:08:58;;;;;;;;;;;;;;;21.28;53.74;97496.94;4209999;28;5663;-74
2022/10/05 16:11:08;;;;;;;;;;;;;;;21.27;53.99;97503.38;4208490;28;5929;-74
2022/10/05 16:13:21;;;;;;;;;;;;;;;21.26;53.55;97512.50;4202165;28;5696;-74
2022/10/05 16:15:32;;;;;;;;;;;;;;;21.24;53.78;97503.84;4204219;28;5754;-74
2022/10/05 16:17:49;;;;;;;;;;;;;;;21.22;53.67;97512.16;4209616;28;5762;-74
2022/10/05 16:20:05;;;;;;;;;;;;;;;21.22;53.60;97505.97;4203162;28;5667;-74
2022/10/05 16:22:19;;;;;;;;;;;;;;;21.19;53.61;97504.59;4203518;28;5723;-74
2022/10/05 16:24:39;;;;;;;;;;;;;;;21.19;54.08;97504.59;4203354;28;5623;-75
2022/10/05 16:26:58;;;;;;;;;;;;;;;21.16;53.69;97505.06;4204724;28;5693;-74
2022/10/05 16:29:11;;;;;;;;;;;;;;;21.17;53.69;97508.56;4210021;28;5657;-74
2022/10/05 16:31:22;;;;;;;;;;;;;;;21.17;53.78;97513.94;4214032;28;6363;-74
2022/10/05 16:33:36;;;;;;;;;;;;;;;21.16;54.01;97517.69;4199693;28;5890;-74
2022/10/05 16:35:46;;;;;;;;;;;;;;;21.13;53.88;97521.69;4201974;28;5835;-74
2022/10/05 16:38:01;;;;;;;;;;;;;;;21.12;53.88;97524.63;4209593;28;5812;-74
2022/10/05 16:40:18;;;;;;;;;;;;;;;21.09;53.67;97522.44;4201764;28;5740;-75
2022/10/05 16:42:35;;;;;;;;;;;;;;;21.08;53.91;97531.53;4207248;28;6745;-75
2022/10/05 16:44:46;;;;;;;;;;;;;;;21.07;53.86;97529.91;4207941;28;5787;-75
2022/10/05 16:46:56;;;;;;;;;;;;;;;21.05;54.21;97526.63;4211001;28;5694;-76
2022/10/05 16:49:09;;;;;;;;;;;;;;;21.01;53.97;97526.31;4205283;28;5777;-76
2022/10/05 16:51:30;;;;;;;;;;;;;;;21.02;53.98;97533.31;4201467;28;5839;-75
2022/10/05 16:53:38;;;;;;;;;;;;;;;21.04;54.13;97530.38;4206316;28;5711;-75
2022/10/05 16:55:47;;;;;;;;;;;;;;;21.06;53.94;97533.63;4210262;28;5671;-75
2022/10/05 16:57:55;;;;;;;;;;;;;;;21.07;53.75;97535.28;4205718;28;5753;-75
2022/10/05 17:00:19;;;;;;;;;;;;;;;21.07;54.10;97529.91;4201399;28;5845;-75
2022/10/05 17:02:34;;;;;;;;;;;;;;;21.10;53.97;97535.63;4201192;28;5755;-75
2022/10/05 17:04:55;;;;;;;;;;;;;;;21.11;53.70;97536.44;4206816;28;5879;-75
2022/10/05 17:07:22;;;;;;;;;;;;;;;21.11;53.96;97539.13;4200715;28;5790;-75
2022/10/05 17:09:40;;;;;;;;;;;;;;;21.13;53.58;97551.25;4211330;28;5736;-74
2022/10/05 17:11:57;;;;;;;;;;;;;;;21.15;53.41;97542.94;4205493;28;5690;-74
2022/10/05 17:14:26;;;;;;;;;;;;;;;21.15;53.45;97553.69;4198726;28;5707;-75
2022/10/05 17:16:39;;;;;;;;;;;;;;;21.13;53.79;97561.19;4204360;28;5675;-75
2022/10/05 17:19:14;;;;;;;;;;;;;;;21.10;53.72;97556.31;4198359;28;5688;-73
2022/10/05 17:21:21;;;;;;;;;;;;;;;21.09;53.68;97562.75;4203776;28;5670;-75
2022/10/05 17:23:52;;;;;;;;;;;;;;;21.07;53.48;97578.31;4204653;28;5930;-75